createdAt,value
2022-10-09T00:01:40.222Z,11.50
2022-10-09T00:04:09.202Z,12.68
2022-10-09T00:06:38.167Z,9.60
2022-10-09T00:09:07.156Z,11.98
2022-10-09T00:11:36.270Z,8.02
2022-10-09T00:14:05.745Z,13.88
2022-10-09T00:16:36.098Z,9.40
2022-10-09T00:19:05.286Z,8.63
2022-10-09T00:21:35.179Z,11.18
2022-10-09T00:24:05.618Z,10.32
2022-10-09T00:26:35.042Z,10.87
2022-10-09T00:29:04.031Z,7.65
2022-10-09T00:31:33.416Z,8.10
2022-10-09T00:34:03.901Z,8.13
2022-10-09T00:36:33.241Z,7.38
2022-10-09T00:39:02.210Z,8.90
2022-10-09T00:41:33.971Z,9.43
2022-10-09T00:44:04.607Z,9.70
2022-10-09T00:46:37.711Z,5.03
2022-10-09T00:49:16.340Z,9.65
2022-10-09T00:51:48.098Z,10.65
2022-10-09T00:54:21.834Z,11.85
2022-10-09T00:56:51.929Z,14.07
2022-10-09T00:59:21.434Z,11.60
2022-10-09T01:01:50.776Z,10.80
2022-10-09T01:04:21.188Z,7.82
2022-10-09T01:07:13.747Z,20.25
2022-10-09T01:09:48.741Z,10.23
2022-10-09T01:12:24.899Z,6.13
2022-10-09T01:15:02.216Z,10.20
2022-10-09T01:17:37.780Z,9.20
2022-10-09T01:20:27.298Z,8.50
2022-10-09T01:23:18.355Z,6.78
2022-10-09T01:25:58.072Z,12.98
2022-10-09T01:28:30.223Z,12.68
2022-10-09T01:31:02.860Z,6.68
2022-10-09T01:33:33.653Z,10.23
2022-10-09T01:36:03.970Z,11.70
2022-10-09T01:38:34.185Z,9.73
2022-10-09T01:41:05.253Z,10.18
2022-10-09T01:43:35.854Z,8.77
2022-10-09T01:46:22.424Z,9.30
2022-10-09T01:49:09.987Z,11.20
2022-10-09T01:51:45.632Z,8.15
2022-10-09T01:54:16.158Z,8.68
2022-10-09T01:56:47.557Z,11.25
2022-10-09T02:01:49.922Z,11.65
2022-10-09T02:04:20.756Z,11.38
2022-10-09T02:06:50.420Z,12.52
2022-10-09T02:09:20.161Z,7.53
2022-10-09T02:11:55.890Z,9.63
2022-10-09T02:14:26.684Z,10.23
2022-10-09T02:17:02.622Z,8.25
2022-10-09T02:19:38.247Z,11.75
2022-10-09T02:22:13.553Z,12.40
2022-10-09T02:24:43.554Z,9.90
2022-10-09T02:27:13.731Z,10.68
2022-10-09T02:29:46.058Z,13.23
2022-10-09T02:32:15.515Z,13.38
2022-10-09T02:34:44.584Z,9.25
2022-10-09T02:37:13.641Z,13.95
2022-10-09T02:39:43.796Z,9.82
2022-10-09T02:42:13.113Z,6.97
2022-10-09T02:44:43.602Z,9.60
2022-10-09T02:47:12.645Z,12.90
2022-10-09T02:49:41.694Z,10.05
2022-10-09T02:52:10.666Z,8.45
2022-10-09T02:54:39.624Z,11.10
2022-10-09T02:57:08.627Z,9.35
2022-10-09T02:59:37.622Z,11.40
2022-10-09T03:02:08.096Z,9.70
2022-10-09T03:04:37.142Z,18.40
2022-10-09T03:07:06.104Z,10.75
2022-10-09T03:09:35.076Z,11.30
2022-10-09T03:12:04.095Z,12.80
2022-10-09T03:14:33.081Z,9.75
2022-10-09T03:17:02.022Z,10.20
2022-10-09T03:19:32.394Z,8.65
2022-10-09T03:22:01.353Z,11.30
2022-10-09T03:24:30.317Z,17.15
2022-10-09T03:26:59.439Z,10.02
2022-10-09T03:29:28.395Z,13.55
2022-10-09T03:31:57.433Z,14.85
2022-10-09T03:34:26.503Z,11.15
2022-10-09T03:36:56.842Z,10.82
2022-10-09T03:39:25.887Z,7.00
2022-10-09T03:41:54.837Z,13.15
2022-10-09T03:44:23.787Z,10.65
2022-10-09T03:46:53.672Z,12.73
2022-10-09T03:49:22.786Z,9.65
2022-10-09T03:51:51.972Z,12.45
2022-10-09T03:54:22.358Z,9.15
2022-10-09T03:56:51.376Z,12.68
2022-10-09T03:59:20.328Z,6.43
2022-10-09T04:01:49.345Z,8.40
2022-10-09T04:04:18.468Z,8.15
2022-10-09T04:06:47.498Z,9.52
2022-10-09T04:09:16.433Z,14.35
2022-10-09T04:11:46.744Z,9.90
2022-10-09T04:14:15.717Z,7.72
2022-10-09T04:16:44.729Z,12.55
2022-10-09T04:19:13.773Z,13.48
2022-10-09T04:21:42.750Z,7.68
2022-10-09T04:24:11.730Z,10.95
2022-10-09T04:26:40.742Z,7.30
2022-10-09T04:29:11.905Z,12.45
2022-10-09T04:31:40.969Z,14.93
2022-10-09T04:34:09.997Z,9.32
2022-10-09T04:36:38.937Z,11.88
2022-10-09T04:39:08.125Z,11.02
2022-10-09T04:41:38.526Z,12.90
2022-10-09T04:44:07.700Z,10.03
2022-10-09T04:46:38.130Z,13.23
2022-10-09T04:49:07.098Z,12.53
2022-10-09T04:51:36.077Z,7.53
2022-10-09T04:54:05.190Z,10.43
2022-10-09T04:56:34.162Z,13.63
2022-10-09T04:59:03.151Z,9.15
2022-10-09T05:01:37.925Z,7.40
2022-10-09T05:04:08.731Z,10.75
2022-10-09T05:06:37.706Z,8.18
2022-10-09T05:09:06.636Z,9.00
2022-10-09T05:11:39.181Z,7.57
2022-10-09T05:14:10.954Z,10.35
2022-10-09T05:17:08.132Z,6.82
2022-10-09T05:19:30.556Z,8.15
2022-10-09T05:21:59.763Z,14.70
2022-10-09T05:24:29.613Z,9.63
2022-10-09T05:26:58.552Z,19.33
2022-10-09T05:29:27.522Z,11.05
2022-10-09T05:31:56.525Z,8.43
2022-10-09T05:34:25.511Z,15.48
2022-10-09T05:36:55.886Z,10.60
2022-10-09T05:39:24.978Z,14.90
2022-10-09T05:41:53.947Z,10.60
2022-10-09T05:44:23.018Z,11.88
2022-10-09T05:46:51.961Z,13.43
2022-10-09T05:49:21.058Z,10.75
2022-10-09T05:51:50.737Z,14.80
2022-10-09T05:54:21.154Z,9.52
2022-10-09T05:56:50.144Z,16.13
2022-10-09T05:59:20.575Z,14.88
2022-10-09T06:01:51.309Z,11.73
2022-10-09T06:04:21.943Z,10.18
2022-10-09T06:06:51.264Z,12.10
2022-10-09T06:09:24.019Z,11.75
2022-10-09T06:11:54.742Z,9.85
2022-10-09T06:14:24.585Z,8.73
2022-10-09T06:16:53.702Z,16.73
2022-10-09T06:19:23.057Z,16.13
2022-10-09T06:21:52.218Z,11.80
2022-10-09T06:24:28.163Z,13.07
2022-10-09T06:26:58.735Z,12.23
2022-10-09T06:29:27.783Z,11.35
2022-10-09T06:31:56.853Z,11.68
2022-10-09T06:34:25.920Z,7.13
2022-10-09T06:36:54.853Z,11.88
2022-10-09T06:39:26.448Z,15.50
2022-10-09T06:41:55.368Z,7.95
2022-10-09T06:44:47.184Z,13.30
2022-10-09T06:47:16.167Z,11.55
2022-10-09T06:49:45.135Z,10.18
2022-10-09T06:52:14.080Z,11.18
2022-10-09T06:54:44.442Z,7.22
2022-10-09T06:57:13.553Z,12.82
2022-10-09T06:59:42.550Z,9.02
2022-10-09T07:02:11.561Z,10.80
2022-10-09T07:04:40.713Z,12.55
2022-10-09T07:07:09.673Z,11.60
2022-10-09T07:09:38.817Z,14.90
2022-10-09T07:12:09.240Z,13.65
2022-10-09T07:14:38.194Z,16.27
2022-10-09T07:17:07.278Z,9.73
2022-10-09T07:19:36.544Z,10.35
2022-10-09T07:22:05.596Z,12.38
2022-10-09T07:24:34.568Z,13.43
2022-10-09T07:27:03.601Z,9.82
2022-10-09T07:29:33.931Z,12.93
2022-10-09T07:32:06.941Z,9.35
2022-10-09T07:34:41.291Z,11.13
2022-10-09T07:37:10.274Z,8.85
2022-10-09T07:39:42.863Z,15.25
2022-10-09T07:42:14.017Z,11.10
2022-10-09T07:44:44.556Z,10.00
2022-10-09T07:47:13.529Z,9.33
2022-10-09T07:49:42.505Z,8.90
2022-10-09T07:52:11.521Z,7.75
2022-10-09T07:54:40.490Z,7.80
2022-10-09T07:57:09.473Z,10.77
2022-10-09T07:59:38.396Z,13.70
2022-10-09T08:02:10.058Z,12.55
2022-10-09T08:04:39.305Z,12.20
2022-10-09T08:07:08.300Z,14.30
2022-10-09T08:09:37.326Z,5.10
2022-10-09T08:12:06.462Z,7.15
2022-10-09T08:14:35.590Z,15.63
2022-10-09T08:17:04.640Z,12.18
2022-10-09T08:19:35.220Z,16.20
2022-10-09T08:22:04.407Z,11.70
2022-10-09T08:24:33.509Z,8.98
2022-10-09T08:27:02.461Z,14.48
2022-10-09T08:29:31.501Z,12.77
2022-10-09T08:32:00.585Z,11.63
2022-10-09T08:34:30.130Z,13.30
2022-10-09T08:37:00.471Z,11.52
2022-10-09T08:39:31.058Z,9.98
2022-10-09T08:42:03.421Z,12.65
2022-10-09T08:44:38.972Z,14.25
2022-10-09T08:47:14.596Z,13.05
2022-10-09T08:49:49.444Z,13.10
2022-10-09T08:52:29.701Z,18.38
2022-10-09T08:55:05.349Z,21.17
2022-10-09T08:57:35.946Z,17.05
2022-10-09T09:00:14.252Z,18.15
2022-10-09T09:03:00.056Z,13.95
2022-10-09T09:05:38.027Z,11.18
2022-10-09T09:08:18.139Z,13.68
2022-10-09T09:10:54.249Z,17.83
2022-10-09T09:13:43.849Z,14.18
2022-10-09T09:16:20.178Z,19.42
2022-10-09T09:18:57.307Z,12.50
2022-10-09T09:21:37.209Z,15.45
2022-10-09T09:24:15.256Z,17.45
2022-10-09T09:26:46.763Z,19.17
2022-10-09T09:29:19.193Z,17.33
2022-10-09T09:31:51.629Z,22.98
2022-10-09T09:34:25.734Z,17.98
2022-10-09T09:36:58.175Z,12.57
2022-10-09T09:42:21.295Z,12.43
2022-10-09T09:44:57.317Z,14.88
2022-10-09T09:47:33.772Z,18.52
2022-10-09T09:50:05.651Z,10.73
2022-10-09T09:52:40.893Z,16.60
2022-10-09T09:55:25.643Z,13.90
2022-10-09T09:58:01.846Z,15.13
2022-10-09T10:00:31.036Z,12.13
2022-10-09T10:03:12.754Z,10.95
2022-10-09T10:05:43.455Z,12.23
2022-10-09T10:08:21.848Z,16.05
2022-10-09T10:10:54.009Z,13.13
2022-10-09T10:13:24.941Z,11.07
2022-10-09T10:15:56.234Z,15.32
2022-10-09T10:18:28.333Z,12.20
2022-10-09T10:21:02.748Z,10.85
2022-10-09T10:23:36.655Z,12.10
2022-10-09T10:26:14.277Z,16.08
2022-10-09T10:28:48.746Z,14.43
2022-10-09T10:31:30.740Z,12.18
2022-10-09T10:34:00.366Z,10.50
2022-10-09T10:36:30.425Z,14.70
2022-10-09T10:39:06.242Z,10.25
2022-10-09T10:41:42.693Z,12.10
2022-10-09T10:44:24.089Z,11.52
2022-10-09T10:47:00.138Z,15.10
2022-10-09T10:49:33.488Z,16.55
2022-10-09T10:52:18.421Z,18.20
2022-10-09T10:54:53.398Z,12.82
2022-10-09T10:57:31.218Z,16.70
2022-10-09T11:00:06.599Z,11.68
2022-10-09T11:03:07.099Z,13.73
2022-10-09T11:05:47.656Z,15.80
2022-10-09T11:08:36.427Z,17.73
2022-10-09T11:11:10.168Z,17.50
2022-10-09T11:13:48.788Z,10.25
2022-10-09T11:16:29.725Z,15.52
2022-10-09T11:19:10.872Z,10.75
2022-10-09T11:21:52.242Z,16.73
2022-10-09T11:24:37.858Z,14.18
2022-10-09T11:27:15.239Z,13.43
2022-10-09T11:29:49.128Z,13.25
2022-10-09T11:32:21.639Z,13.40
2022-10-09T11:34:56.626Z,15.68
2022-10-09T11:37:29.677Z,13.30
2022-10-09T11:39:58.662Z,15.00
2022-10-09T11:42:28.506Z,20.85
2022-10-09T11:45:08.642Z,12.05
2022-10-09T11:47:45.835Z,11.07
2022-10-09T11:50:28.062Z,14.18
2022-10-09T11:53:03.704Z,16.38
2022-10-09T11:55:33.938Z,13.77
2022-10-09T11:58:14.966Z,17.15
2022-10-09T12:00:46.022Z,18.15
2022-10-09T12:03:33.415Z,13.77
2022-10-09T12:06:09.507Z,19.95
2022-10-09T12:08:40.117Z,15.77
2022-10-09T12:11:13.973Z,16.17
2022-10-09T12:13:50.515Z,18.77
2022-10-09T12:16:48.039Z,16.38
2022-10-09T12:19:20.937Z,14.30
2022-10-09T12:21:59.485Z,14.50
2022-10-09T12:24:31.885Z,15.70
2022-10-09T12:27:05.404Z,18.33
2022-10-09T12:29:43.089Z,13.82
2022-10-09T12:32:19.580Z,10.48
2022-10-09T12:34:51.152Z,16.27
2022-10-09T12:37:22.349Z,13.60
2022-10-09T12:39:51.470Z,19.90
2022-10-09T12:42:24.157Z,14.10
2022-10-09T12:44:56.754Z,15.18
2022-10-09T12:47:29.761Z,17.92
2022-10-09T12:50:00.323Z,12.52
2022-10-09T12:52:30.256Z,11.10
2022-10-09T12:54:59.644Z,15.30
2022-10-09T12:57:29.191Z,16.90
2022-10-09T12:59:58.990Z,15.52
2022-10-09T13:02:29.537Z,12.75
2022-10-09T13:05:02.174Z,12.38
2022-10-09T13:07:33.172Z,14.77
2022-10-09T13:10:06.527Z,15.23
2022-10-09T13:12:36.556Z,12.50
2022-10-09T13:15:07.508Z,16.15
2022-10-09T13:17:39.865Z,14.82
2022-10-09T13:20:26.001Z,11.07
2022-10-09T13:22:56.569Z,9.45
2022-10-09T13:25:26.413Z,9.85
2022-10-09T13:27:55.572Z,16.13
2022-10-09T13:30:24.549Z,11.43
2022-10-09T13:32:56.328Z,15.07
2022-10-09T13:35:25.389Z,11.30
2022-10-09T13:37:54.335Z,14.05
2022-10-09T13:40:23.400Z,14.93
2022-10-09T13:42:56.707Z,12.68
2022-10-09T13:45:25.709Z,13.27
2022-10-09T13:47:56.189Z,15.68
2022-10-09T13:50:25.553Z,11.40
2022-10-09T13:52:54.538Z,11.05
2022-10-09T13:55:24.116Z,15.25
2022-10-09T13:57:53.960Z,11.38
2022-10-09T14:00:23.076Z,14.10
2022-10-09T14:02:52.070Z,17.58
2022-10-09T14:05:23.728Z,13.40
2022-10-09T14:07:52.885Z,14.68
2022-10-09T14:10:23.909Z,13.48
2022-10-09T14:12:53.119Z,18.42
2022-10-09T14:15:22.180Z,13.00
2022-10-09T14:17:51.807Z,13.65
2022-10-09T14:20:25.166Z,9.85
2022-10-09T14:22:54.178Z,16.58
2022-10-09T14:25:23.169Z,15.95
2022-10-09T14:27:52.216Z,14.93
2022-10-09T14:30:21.403Z,12.65
2022-10-09T14:32:51.248Z,12.10
2022-10-09T14:35:21.617Z,14.77
2022-10-09T14:37:52.340Z,13.83
2022-10-09T14:40:21.357Z,10.20
2022-10-09T14:42:50.551Z,11.43
2022-10-09T14:45:21.004Z,11.98
2022-10-09T14:47:50.024Z,15.23
2022-10-09T14:50:19.333Z,10.20
2022-10-09T14:52:48.567Z,11.38
2022-10-09T14:55:19.302Z,11.10
2022-10-09T14:57:48.242Z,9.03
2022-10-09T15:00:17.950Z,10.45
2022-10-09T15:02:46.905Z,11.73
2022-10-09T15:05:15.996Z,10.35
2022-10-09T15:07:44.965Z,11.57
2022-10-09T15:10:14.909Z,15.20
2022-10-09T15:12:45.251Z,11.98
2022-10-09T15:15:14.284Z,8.75
2022-10-09T15:17:43.274Z,10.75
2022-10-09T15:20:12.379Z,10.23
2022-10-09T15:22:41.789Z,11.68
2022-10-09T15:25:11.596Z,11.77
2022-10-09T15:27:40.698Z,9.30
2022-10-09T15:30:12.788Z,12.40
2022-10-09T15:32:41.828Z,9.02
2022-10-09T15:35:11.166Z,10.02
2022-10-09T15:37:40.684Z,8.30
2022-10-09T15:40:10.604Z,6.78
2022-10-09T15:42:41.490Z,8.23
2022-10-09T15:45:12.509Z,8.93
2022-10-09T15:47:50.979Z,7.65
2022-10-09T15:50:20.318Z,10.18
2022-10-09T15:52:49.765Z,7.00
2022-10-09T15:55:19.109Z,7.93
2022-10-09T15:57:48.222Z,7.28
2022-10-09T16:00:19.009Z,9.23
2022-10-09T16:02:48.276Z,5.15
2022-10-09T16:05:17.596Z,5.75
2022-10-09T16:07:47.240Z,6.10
2022-10-09T16:10:16.278Z,6.75
2022-10-09T16:12:45.307Z,9.02
2022-10-09T16:15:14.329Z,7.32
2022-10-09T16:17:44.726Z,8.38
2022-10-09T16:20:13.761Z,7.45
2022-10-09T16:22:42.742Z,6.43
2022-10-09T16:25:11.907Z,6.13
2022-10-09T16:27:40.889Z,10.10
2022-10-09T16:30:12.320Z,8.30
2022-10-09T16:32:41.541Z,10.13
2022-10-09T16:35:12.106Z,9.32
2022-10-09T16:37:41.259Z,6.20
2022-10-09T16:40:11.122Z,5.25
2022-10-09T16:42:40.356Z,7.82
2022-10-09T16:45:11.109Z,9.88
2022-10-09T16:47:40.562Z,5.22
2022-10-09T16:50:11.579Z,4.55
2022-10-09T16:52:40.659Z,5.03
2022-10-09T16:55:10.533Z,5.40
2022-10-09T16:57:39.667Z,5.38
2022-10-09T17:00:10.348Z,6.15
2022-10-09T17:02:39.627Z,5.18
2022-10-09T17:05:09.797Z,5.10
2022-10-09T17:07:40.590Z,7.85
2022-10-09T17:10:10.665Z,4.43
2022-10-09T17:12:39.655Z,4.43
2022-10-09T17:15:09.421Z,4.82
2022-10-09T17:17:38.981Z,3.95
2022-10-09T17:20:09.008Z,3.83
2022-10-09T17:22:39.456Z,4.93
2022-10-09T17:25:09.379Z,3.90
2022-10-09T17:27:38.470Z,4.07
2022-10-09T17:30:08.659Z,3.53
2022-10-09T17:32:37.675Z,5.03
2022-10-09T17:35:07.941Z,4.97
2022-10-09T17:37:36.894Z,3.75
2022-10-09T17:40:08.234Z,2.33
2022-10-09T17:45:07.168Z,4.78
2022-10-09T17:47:36.673Z,2.63
2022-10-09T17:50:06.530Z,5.95
2022-10-09T17:52:35.496Z,7.03
2022-10-09T17:55:06.416Z,6.13
2022-10-09T17:57:35.562Z,4.70
2022-10-09T18:00:05.064Z,5.22
2022-10-09T18:02:34.460Z,4.32
2022-10-09T18:05:03.546Z,4.55
2022-10-09T18:07:32.951Z,7.90
2022-10-09T18:10:02.640Z,5.82
2022-10-09T18:12:33.704Z,8.60
2022-10-09T18:15:03.909Z,2.30
2022-10-09T18:17:34.553Z,2.22
2022-10-09T18:20:03.833Z,6.28
2022-10-09T18:22:33.054Z,3.28
2022-10-09T18:25:02.315Z,3.17
2022-10-09T18:27:33.110Z,3.92
2022-10-09T18:30:02.583Z,4.38
2022-10-09T18:32:31.938Z,5.47
2022-10-09T18:35:01.470Z,5.20
2022-10-09T18:37:30.851Z,4.45
2022-10-09T18:40:00.111Z,2.55
2022-10-09T18:42:29.814Z,4.10
2022-10-09T18:45:01.177Z,2.50
2022-10-09T18:50:09.035Z,9.82
2022-10-09T18:52:39.694Z,21.05
2022-10-09T18:55:11.902Z,11.32
2022-10-09T18:57:42.267Z,13.95
2022-10-09T19:00:14.683Z,8.50
2022-10-09T19:02:43.906Z,9.85
2022-10-09T19:05:13.258Z,13.52
2022-10-09T19:07:42.766Z,19.05
2022-10-09T19:10:12.358Z,29.88
2022-10-09T19:12:42.866Z,26.63
2022-10-09T19:15:14.261Z,25.47
2022-10-09T19:17:43.492Z,23.42
2022-10-09T19:20:12.893Z,26.58
2022-10-09T19:22:41.948Z,33.47
2022-10-09T19:25:11.199Z,22.10
2022-10-09T19:27:40.742Z,19.90
2022-10-09T19:30:12.918Z,24.65
2022-10-09T19:32:42.437Z,19.40
2022-10-09T19:35:11.806Z,23.38
2022-10-09T19:37:41.503Z,26.70
2022-10-09T19:40:11.231Z,22.05
2022-10-09T19:42:40.430Z,21.50
2022-10-09T19:45:10.750Z,29.40
2022-10-09T19:47:41.480Z,22.98
2022-10-09T19:50:15.028Z,21.35
2022-10-09T19:52:46.691Z,22.58
2022-10-09T19:55:16.188Z,19.73
2022-10-09T19:57:45.655Z,22.15
2022-10-09T20:00:15.484Z,15.18
2022-10-09T20:02:46.440Z,20.45
2022-10-09T20:05:15.606Z,17.10
2022-10-09T20:07:45.106Z,22.50
2022-10-09T20:10:14.233Z,19.92
2022-10-09T20:12:43.602Z,25.10
2022-10-09T20:15:12.934Z,21.55
2022-10-09T20:17:42.317Z,19.42
2022-10-09T20:20:13.413Z,15.60
2022-10-09T20:22:42.830Z,15.38
2022-10-09T20:25:12.195Z,19.55
2022-10-09T20:27:41.771Z,16.00
2022-10-09T20:30:12.174Z,21.27
2022-10-09T20:32:41.263Z,19.13
2022-10-09T20:35:10.659Z,20.52
2022-10-09T20:37:41.180Z,21.60
2022-10-09T20:40:10.787Z,31.33
2022-10-09T20:42:39.986Z,20.98
2022-10-09T20:45:09.596Z,22.83
2022-10-09T20:47:38.793Z,20.05
2022-10-09T20:50:08.539Z,20.67
2022-10-09T20:52:37.626Z,21.10
2022-10-09T20:55:09.376Z,21.25
2022-10-09T20:57:38.390Z,21.10
2022-10-09T21:00:08.497Z,23.45
2022-10-09T21:02:37.562Z,21.38
2022-10-09T21:05:08.324Z,24.17
2022-10-09T21:07:37.456Z,20.98
2022-10-09T21:10:09.088Z,16.42
2022-10-09T21:12:38.120Z,21.50
2022-10-09T21:15:08.288Z,16.63
2022-10-09T21:17:37.489Z,21.00
2022-10-09T21:20:07.423Z,21.38
2022-10-09T21:22:36.388Z,19.05
2022-10-09T21:25:07.393Z,19.92
2022-10-09T21:27:36.405Z,15.95
2022-10-09T21:30:06.027Z,18.98
2022-10-09T21:32:34.965Z,22.75
2022-10-09T21:35:03.939Z,21.05
2022-10-09T21:37:37.303Z,21.10
2022-10-09T21:40:09.117Z,15.82
2022-10-09T21:42:38.119Z,13.90
2022-10-09T21:45:08.128Z,20.73
2022-10-09T21:47:37.205Z,26.52
2022-10-09T21:50:07.032Z,15.13
2022-10-09T21:52:36.057Z,25.63
2022-10-09T21:55:05.364Z,21.50
2022-10-09T21:57:35.705Z,19.88
2022-10-09T22:00:05.875Z,20.35
2022-10-09T22:02:35.229Z,18.40
2022-10-09T22:05:04.540Z,24.67
2022-10-09T22:07:33.624Z,17.65
2022-10-09T22:10:04.006Z,18.48
2022-10-09T22:12:33.406Z,15.53
2022-10-09T22:15:03.851Z,22.63
2022-10-09T22:17:32.791Z,16.63
2022-10-09T22:20:01.743Z,19.88
2022-10-09T22:22:30.777Z,18.80
2022-10-09T22:25:00.457Z,16.17
2022-10-09T22:27:29.446Z,15.50
2022-10-09T22:29:58.403Z,22.13
2022-10-09T22:32:28.802Z,13.82
2022-10-09T22:34:57.789Z,19.73
2022-10-09T22:37:26.875Z,16.50
2022-10-09T22:39:55.857Z,12.57
2022-10-09T22:42:24.864Z,13.07
2022-10-09T22:44:53.824Z,19.52
2022-10-09T22:47:23.075Z,17.52
2022-10-09T22:49:53.450Z,14.80
2022-10-09T22:52:22.416Z,13.75
2022-10-09T22:54:51.387Z,20.30
2022-10-09T22:57:20.717Z,17.63
2022-10-09T22:59:49.855Z,12.57
2022-10-09T23:02:18.791Z,18.80
2022-10-09T23:04:47.836Z,17.88
2022-10-09T23:07:18.260Z,15.10
2022-10-09T23:09:47.207Z,18.00
2022-10-09T23:12:16.167Z,20.98
2022-10-09T23:14:45.330Z,17.33
2022-10-09T23:17:14.331Z,19.38
2022-10-09T23:19:43.290Z,14.55
2022-10-09T23:22:12.226Z,16.48
2022-10-09T23:24:42.741Z,14.10
2022-10-09T23:27:11.775Z,17.50
2022-10-09T23:29:40.772Z,12.73
2022-10-09T23:32:09.749Z,21.75
2022-10-09T23:34:38.708Z,16.95
2022-10-09T23:37:07.722Z,15.00
2022-10-09T23:39:36.656Z,18.50
2022-10-09T23:42:07.146Z,17.67
2022-10-09T23:44:36.128Z,20.42
2022-10-09T23:47:05.181Z,19.02
2022-10-09T23:49:34.128Z,17.73
2022-10-09T23:52:03.340Z,18.13
2022-10-09T23:54:32.320Z,18.63
2022-10-09T23:57:01.300Z,17.65
2022-10-09T23:59:31.652Z,17.10
